createdAt,value
2018-04-13T00:00:48.183Z,997.68
2018-04-13T00:01:48.137Z,997.68
2018-04-13T00:02:48.105Z,997.63
2018-04-13T00:03:48.093Z,997.66
2018-04-13T00:04:48.020Z,997.66
2018-04-13T00:05:47.976Z,997.63
2018-04-13T00:06:47.951Z,997.66
2018-04-13T00:07:47.904Z,997.63
2018-04-13T00:08:47.854Z,997.68
2018-04-13T00:09:47.848Z,997.64
2018-04-13T00:10:47.777Z,997.66
2018-04-13T00:11:47.744Z,997.66
2018-04-13T00:12:47.707Z,997.66
2018-04-13T00:13:47.655Z,997.68
2018-04-13T00:14:47.653Z,997.68
2018-04-13T00:15:47.581Z,997.66
2018-04-13T00:16:47.532Z,997.65
2018-04-13T00:17:47.500Z,997.66
2018-04-13T00:18:47.456Z,997.67
2018-04-13T00:19:47.433Z,997.72
2018-04-13T00:20:47.410Z,997.71
2018-04-13T00:21:47.341Z,997.74
2018-04-13T00:22:47.303Z,997.74
2018-04-13T00:23:47.264Z,997.75
2018-04-13T00:24:47.225Z,997.74
2018-04-13T00:25:47.191Z,997.76
2018-04-13T00:26:47.183Z,997.77
2018-04-13T00:27:47.094Z,997.77
2018-04-13T00:28:47.072Z,997.78
2018-04-13T00:29:47.024Z,997.84
2018-04-13T00:30:46.978Z,997.76
2018-04-13T00:31:46.966Z,997.73
2018-04-13T00:32:46.899Z,997.73
2018-04-13T00:33:46.854Z,997.69
2018-04-13T00:34:46.825Z,997.72
2018-04-13T00:35:46.771Z,997.73
2018-04-13T00:36:46.751Z,997.71
2018-04-13T00:37:46.728Z,997.75
2018-04-13T00:38:46.659Z,997.72
2018-04-13T00:39:46.615Z,997.74
2018-04-13T00:40:46.582Z,997.79
2018-04-13T00:41:46.540Z,997.75
2018-04-13T00:42:46.525Z,997.76
2018-04-13T00:43:46.480Z,997.74
2018-04-13T00:44:46.416Z,997.75
2018-04-13T00:45:46.370Z,997.70
2018-04-13T00:46:46.371Z,997.72
2018-04-13T00:47:46.305Z,997.72
2018-04-13T00:48:46.281Z,997.73
2018-04-13T00:49:46.219Z,997.77
2018-04-13T00:50:46.174Z,997.78
2018-04-13T00:51:46.135Z,997.80
2018-04-13T00:52:46.099Z,997.79
2018-04-13T00:53:46.076Z,997.85
2018-04-13T00:54:46.016Z,997.85
2018-04-13T00:55:45.971Z,997.91
2018-04-13T00:56:45.944Z,997.87
2018-04-13T00:57:45.891Z,997.89
2018-04-13T00:58:45.853Z,997.92
2018-04-13T00:59:45.846Z,997.90
2018-04-13T01:00:45.764Z,997.92
2018-04-13T01:01:45.734Z,997.93
2018-04-13T01:02:45.705Z,997.96
2018-04-13T01:03:45.650Z,997.93
2018-04-13T01:04:45.653Z,997.91
2018-04-13T01:05:45.562Z,997.98
2018-04-13T01:06:45.538Z,997.95
2018-04-13T01:07:45.491Z,997.96
2018-04-13T01:08:45.450Z,997.99
2018-04-13T01:09:45.405Z,997.97
2018-04-13T01:10:45.393Z,997.99
2018-04-13T01:11:45.335Z,997.99
2018-04-13T01:12:45.279Z,997.97
2018-04-13T01:13:45.244Z,997.98
2018-04-13T01:14:45.199Z,998.00
2018-04-13T01:15:45.161Z,998.05
2018-04-13T01:16:45.157Z,998.04
2018-04-13T01:17:45.087Z,998.07
2018-04-13T01:18:45.071Z,998.07
2018-04-13T01:19:45.006Z,998.09
2018-04-13T01:20:44.988Z,998.09
2018-04-13T01:21:44.920Z,998.13
2018-04-13T01:22:44.882Z,998.13
2018-04-13T01:23:44.840Z,998.07
2018-04-13T01:24:44.810Z,998.14
2018-04-13T01:25:44.789Z,998.14
2018-04-13T01:26:44.723Z,998.12
2018-04-13T01:27:44.674Z,998.13
2018-04-13T01:28:44.643Z,998.17
2018-04-13T01:29:44.591Z,998.12
2018-04-13T01:30:44.565Z,998.12
2018-04-13T01:31:44.543Z,998.08
2018-04-13T01:32:44.480Z,998.10
2018-04-13T01:33:44.434Z,998.08
2018-04-13T01:34:44.389Z,998.06
2018-04-13T01:35:44.354Z,998.10
2018-04-13T01:36:44.349Z,998.07
2018-04-13T01:37:44.276Z,998.07
2018-04-13T01:38:44.239Z,998.08
2018-04-13T01:39:44.186Z,998.02
2018-04-13T01:40:44.146Z,998.00
2018-04-13T01:41:44.117Z,997.95
2018-04-13T01:42:44.100Z,997.98
2018-04-13T01:43:44.034Z,997.97
2018-04-13T01:44:43.988Z,997.93
2018-04-13T01:45:43.957Z,997.94
2018-04-13T01:46:43.908Z,997.91
2018-04-13T01:47:43.901Z,997.88
2018-04-13T01:48:43.826Z,997.91
2018-04-13T01:49:43.785Z,997.87
2018-04-13T01:50:43.749Z,997.88
2018-04-13T01:51:43.713Z,997.86
2018-04-13T01:52:43.688Z,997.83
2018-04-13T01:53:43.627Z,997.87
2018-04-13T01:54:43.590Z,997.85
2018-04-13T01:55:43.546Z,997.82
2018-04-13T01:56:43.507Z,997.85
2018-04-13T01:57:43.462Z,997.83
2018-04-13T01:58:43.442Z,997.84
2018-04-13T01:59:43.375Z,997.87
2018-04-13T02:00:43.342Z,997.87
2018-04-13T02:01:43.293Z,997.87
2018-04-13T02:02:43.258Z,997.88
2018-04-13T02:03:43.249Z,997.85
2018-04-13T02:04:43.174Z,997.85
2018-04-13T02:05:43.138Z,997.88
2018-04-13T02:06:43.085Z,997.89
2018-04-13T02:07:43.065Z,997.89
2018-04-13T02:08:43.008Z,997.89
2018-04-13T02:09:43.006Z,997.90
2018-04-13T02:10:42.934Z,997.91
2018-04-13T02:11:42.891Z,997.93
2018-04-13T02:12:42.842Z,997.95
2018-04-13T02:13:42.814Z,997.92
2018-04-13T02:14:42.764Z,997.95
2018-04-13T02:15:42.760Z,997.96
2018-04-13T02:16:42.687Z,997.99
2018-04-13T02:17:42.665Z,998.00
2018-04-13T02:18:42.607Z,997.96
2018-04-13T02:19:42.565Z,997.97
2018-04-13T02:20:42.551Z,997.96
2018-04-13T02:21:42.476Z,997.97
2018-04-13T02:22:42.447Z,998.00
2018-04-13T02:23:42.396Z,998.01
2018-04-13T02:24:42.354Z,998.03
2018-04-13T02:25:42.323Z,998.03
2018-04-13T02:26:42.311Z,998.05
2018-04-13T02:27:42.239Z,998.04
2018-04-13T02:28:42.202Z,998.05
2018-04-13T02:29:42.156Z,998.03
2018-04-13T02:30:42.109Z,998.03
2018-04-13T02:31:42.079Z,998.03
2018-04-13T02:32:42.069Z,998.04
2018-04-13T02:33:41.990Z,998.04
2018-04-13T02:34:42.005Z,998.05
2018-04-13T02:35:41.910Z,998.05
2018-04-13T02:36:41.868Z,998.01
2018-04-13T02:37:41.833Z,998.02
2018-04-13T02:38:41.812Z,998.02
2018-04-13T02:39:41.756Z,998.04
2018-04-13T02:40:41.704Z,998.06
2018-04-13T02:41:41.703Z,998.05
2018-04-13T02:42:41.619Z,998.05
2018-04-13T02:43:41.613Z,998.05
2018-04-13T02:44:41.539Z,998.05
2018-04-13T02:45:41.501Z,998.06
2018-04-13T02:46:41.465Z,998.05
2018-04-13T02:47:41.417Z,998.04
2018-04-13T02:48:41.378Z,998.04
2018-04-13T02:49:41.360Z,998.03
2018-04-13T02:50:41.311Z,998.03
2018-04-13T02:51:41.248Z,998.03
2018-04-13T02:52:41.215Z,998.02
2018-04-13T02:53:41.180Z,998.05
2018-04-13T02:54:41.134Z,998.05
2018-04-13T02:55:41.118Z,998.02
2018-04-13T02:56:41.047Z,998.06
2018-04-13T02:57:41.035Z,998.11
2018-04-13T02:58:40.963Z,998.05
2018-04-13T02:59:40.924Z,998.04
2018-04-13T03:00:40.925Z,998.08
2018-04-13T03:01:40.870Z,998.11
2018-04-13T03:02:40.801Z,998.10
2018-04-13T03:03:40.786Z,998.13
2018-04-13T03:04:40.717Z,998.16
2018-04-13T03:05:40.683Z,998.13
2018-04-13T03:06:40.666Z,998.13
2018-04-13T03:07:40.599Z,998.15
2018-04-13T03:08:40.554Z,998.15
2018-04-13T03:09:40.513Z,998.11
2018-04-13T03:10:40.473Z,998.12
2018-04-13T03:11:40.437Z,998.15
2018-04-13T03:12:40.417Z,998.11
2018-04-13T03:13:40.356Z,998.12
2018-04-13T03:14:40.325Z,998.11
2018-04-13T03:15:40.276Z,998.07
2018-04-13T03:16:40.229Z,998.08
2018-04-13T03:17:40.215Z,998.10
2018-04-13T03:18:40.145Z,998.11
2018-04-13T03:19:40.101Z,998.07
2018-04-13T03:20:40.059Z,998.12
2018-04-13T03:21:40.014Z,998.12
2018-04-13T03:22:39.978Z,998.11
2018-04-13T03:23:39.975Z,998.10
2018-04-13T03:24:39.898Z,998.13
2018-04-13T03:25:39.865Z,998.08
2018-04-13T03:26:39.808Z,998.09
2018-04-13T03:27:39.777Z,998.08
2018-04-13T03:28:39.737Z,998.12
2018-04-13T03:29:39.716Z,998.12
2018-04-13T03:30:39.650Z,998.14
2018-04-13T03:31:39.614Z,998.14
2018-04-13T03:32:39.568Z,998.17
2018-04-13T03:33:39.532Z,998.15
2018-04-13T03:34:39.485Z,998.16
2018-04-13T03:35:39.486Z,998.18
2018-04-13T03:36:39.403Z,998.17
2018-04-13T03:37:39.362Z,998.18
2018-04-13T03:38:39.319Z,998.16
2018-04-13T03:39:39.287Z,998.18
2018-04-13T03:40:39.274Z,998.14
2018-04-13T03:41:39.192Z,998.12
2018-04-13T03:42:39.158Z,998.13
2018-04-13T03:43:39.116Z,998.13
2018-04-13T03:44:39.080Z,998.12
2018-04-13T03:45:39.031Z,998.16
2018-04-13T03:46:39.020Z,998.11
2018-04-13T03:47:38.956Z,998.16
2018-04-13T03:48:38.913Z,998.14
2018-04-13T03:49:38.860Z,998.13
2018-04-13T03:50:38.828Z,998.17
2018-04-13T03:51:38.789Z,998.18
2018-04-13T03:52:38.778Z,998.15
2018-04-13T03:53:38.703Z,998.18
2018-04-13T03:54:38.671Z,998.17
2018-04-13T03:55:38.618Z,998.19
2018-04-13T03:56:38.573Z,998.21
2018-04-13T03:57:38.588Z,998.18
2018-04-13T03:58:38.509Z,998.21
2018-04-13T03:59:38.458Z,998.20
2018-04-13T04:00:38.419Z,998.26
2018-04-13T04:01:38.365Z,998.25
2018-04-13T04:02:38.340Z,998.29
2018-04-13T04:03:38.317Z,998.31
2018-04-13T04:04:38.247Z,998.30
2018-04-13T04:05:38.211Z,998.30
2018-04-13T04:06:38.169Z,998.35
2018-04-13T04:07:38.150Z,998.31
2018-04-13T04:08:38.080Z,998.36
2018-04-13T04:09:38.072Z,998.35
2018-04-13T04:10:38.003Z,998.37
2018-04-13T04:11:37.959Z,998.39
2018-04-13T04:12:37.923Z,998.41
2018-04-13T04:13:37.881Z,998.43
2018-04-13T04:14:37.874Z,998.44
2018-04-13T04:15:37.810Z,998.47
2018-04-13T04:16:37.744Z,998.48
2018-04-13T04:17:37.716Z,998.46
2018-04-13T04:18:37.669Z,998.49
2018-04-13T04:19:37.629Z,998.52
2018-04-13T04:20:37.617Z,998.51
2018-04-13T04:21:37.546Z,998.58
2018-04-13T04:22:37.511Z,998.56
2018-04-13T04:23:37.458Z,998.55
2018-04-13T04:24:37.422Z,998.54
2018-04-13T04:25:37.380Z,998.58
2018-04-13T04:26:37.373Z,998.59
2018-04-13T04:27:37.300Z,998.56
2018-04-13T04:28:37.255Z,998.60
2018-04-13T04:29:37.215Z,998.60
2018-04-13T04:30:37.169Z,998.62
2018-04-13T04:31:37.130Z,998.62
2018-04-13T04:32:37.120Z,998.64
2018-04-13T04:33:37.045Z,998.69
2018-04-13T04:34:37.023Z,998.71
2018-04-13T04:35:36.965Z,998.73
2018-04-13T04:36:36.924Z,998.74
2018-04-13T04:37:36.915Z,998.74
2018-04-13T04:38:36.845Z,998.78
2018-04-13T04:39:36.798Z,998.80
2018-04-13T04:40:36.758Z,998.82
2018-04-13T04:41:36.728Z,998.82
2018-04-13T04:42:36.673Z,998.81
2018-04-13T04:43:36.661Z,998.83
2018-04-13T04:44:36.598Z,998.87
2018-04-13T04:45:36.556Z,998.86
2018-04-13T04:46:36.519Z,998.89
2018-04-13T04:47:36.470Z,998.89
2018-04-13T04:48:36.445Z,998.93
2018-04-13T04:49:36.414Z,998.91
2018-04-13T04:50:36.349Z,998.95
2018-04-13T04:51:36.302Z,998.96
2018-04-13T04:52:36.270Z,998.99
2018-04-13T04:53:36.220Z,999.01
2018-04-13T04:54:36.213Z,999.04
2018-04-13T04:55:36.134Z,999.08
2018-04-13T04:56:36.105Z,999.11
2018-04-13T04:57:36.057Z,999.10
2018-04-13T04:58:36.016Z,999.14
2018-04-13T04:59:36.020Z,999.16
2018-04-13T05:00:35.957Z,999.19
2018-04-13T05:01:35.893Z,999.17
2018-04-13T05:02:35.850Z,999.18
2018-04-13T05:03:35.825Z,999.20
2018-04-13T05:04:35.771Z,999.22
2018-04-13T05:05:35.753Z,999.24
2018-04-13T05:06:35.693Z,999.24
2018-04-13T05:07:35.651Z,999.21
2018-04-13T05:08:35.606Z,999.24
2018-04-13T05:09:35.570Z,999.24
2018-04-13T05:10:35.515Z,999.29
2018-04-13T05:11:35.508Z,999.28
2018-04-13T05:12:35.432Z,999.28
2018-04-13T05:13:35.404Z,999.26
2018-04-13T05:14:35.356Z,999.27
2018-04-13T05:15:35.321Z,999.29
2018-04-13T05:16:35.302Z,999.35
2018-04-13T05:17:35.235Z,999.34
2018-04-13T05:18:35.199Z,999.39
2018-04-13T05:19:35.145Z,999.37
2018-04-13T05:20:35.111Z,999.40
2018-04-13T05:21:35.072Z,999.41
2018-04-13T05:22:35.078Z,999.45
2018-04-13T05:23:34.990Z,999.47
2018-04-13T05:24:34.951Z,999.50
2018-04-13T05:25:34.901Z,999.49
2018-04-13T05:26:34.869Z,999.50
2018-04-13T05:27:34.825Z,999.53
2018-04-13T05:28:34.820Z,999.49
2018-04-13T05:29:34.752Z,999.51
2018-04-13T05:30:34.706Z,999.55
2018-04-13T05:31:34.676Z,999.55
2018-04-13T05:32:34.615Z,999.55
2018-04-13T05:33:34.608Z,999.56
2018-04-13T05:34:34.545Z,999.62
2018-04-13T05:35:34.495Z,999.62
2018-04-13T05:36:34.464Z,999.63
2018-04-13T05:37:34.413Z,999.64
2018-04-13T05:38:34.382Z,999.65
2018-04-13T05:39:34.368Z,999.68
2018-04-13T05:40:34.297Z,999.70
2018-04-13T05:41:34.259Z,999.71
2018-04-13T05:42:34.207Z,999.78
2018-04-13T05:43:34.169Z,999.79
2018-04-13T05:44:34.132Z,999.85
2018-04-13T05:45:34.130Z,999.89
2018-04-13T05:46:34.051Z,999.92
2018-04-13T05:47:34.008Z,999.94
2018-04-13T05:48:33.966Z,999.99
2018-04-13T05:49:33.935Z,999.98
2018-04-13T05:50:33.897Z,999.98
2018-04-13T05:51:33.871Z,1000.02
2018-04-13T05:52:33.807Z,1000.05
2018-04-13T05:53:33.775Z,1000.04
2018-04-13T05:54:33.732Z,1000.03
2018-04-13T05:55:33.687Z,1000.08
2018-04-13T05:56:33.671Z,1000.08
2018-04-13T05:57:33.609Z,1000.13
2018-04-13T05:58:33.567Z,1000.12
2018-04-13T05:59:33.528Z,1000.17
2018-04-13T06:00:33.484Z,1000.19
2018-04-13T06:01:33.436Z,1000.21
2018-04-13T06:02:33.440Z,1000.21
2018-04-13T06:03:33.443Z,1000.27
2018-04-13T06:04:33.325Z,1000.27
2018-04-13T06:05:33.294Z,1000.28
2018-04-13T06:06:33.257Z,1000.30
2018-04-13T06:07:33.208Z,1000.31
2018-04-13T06:08:33.195Z,1000.32
2018-04-13T06:09:33.125Z,1000.32
2018-04-13T06:10:33.082Z,1000.29
2018-04-13T06:11:33.053Z,1000.31
2018-04-13T06:12:33.009Z,1000.30
2018-04-13T06:13:33.035Z,1000.29
2018-04-13T06:14:32.928Z,1000.26
2018-04-13T06:15:32.889Z,1000.29
2018-04-13T06:16:32.841Z,1000.32
2018-04-13T06:17:32.810Z,1000.29
2018-04-13T06:18:33.691Z,1000.27
2018-04-13T06:19:32.762Z,1000.26
2018-04-13T06:20:32.685Z,1000.21
2018-04-13T06:21:32.646Z,1000.20
2018-04-13T06:22:32.618Z,1000.19
2018-04-13T06:23:32.566Z,1000.21
2018-04-13T06:24:32.534Z,1000.20
2018-04-13T06:25:32.520Z,1000.22
2018-04-13T06:26:32.444Z,1000.26
2018-04-13T06:27:32.412Z,1000.28
2018-04-13T06:28:32.373Z,1000.24
2018-04-13T06:29:32.352Z,1000.24
2018-04-13T06:30:32.318Z,1000.26
2018-04-13T06:31:32.269Z,1000.24
2018-04-13T06:32:32.218Z,1000.25
2018-04-13T06:33:32.180Z,1000.26
2018-04-13T06:34:32.136Z,1000.28
2018-04-13T06:35:32.093Z,1000.29
2018-04-13T06:36:32.078Z,1000.34
2018-04-13T06:37:32.020Z,1000.36
2018-04-13T06:38:31.980Z,1000.41
2018-04-13T06:39:31.943Z,1000.38
2018-04-13T06:40:31.904Z,1000.40
2018-04-13T06:41:31.876Z,1000.39
2018-04-13T06:42:31.856Z,1000.36
2018-04-13T06:43:31.783Z,1000.38
2018-04-13T06:44:31.738Z,1000.40
2018-04-13T06:45:31.701Z,1000.41
2018-04-13T06:46:31.659Z,1000.47
2018-04-13T06:47:31.635Z,1000.50
2018-04-13T06:48:31.619Z,1000.48
2018-04-13T06:49:31.558Z,1000.53
2018-04-13T06:50:31.514Z,1000.51
2018-04-13T06:51:31.482Z,1000.55
2018-04-13T06:52:31.443Z,1000.54
2018-04-13T06:53:31.419Z,1000.55
2018-04-13T06:54:31.365Z,1000.57
2018-04-13T06:55:31.315Z,1000.57
2018-04-13T06:56:31.280Z,1000.59
2018-04-13T06:57:31.237Z,1000.58
2018-04-13T06:58:31.204Z,1000.59
2018-04-13T06:59:31.186Z,1000.59
2018-04-13T07:00:31.137Z,1000.63
2018-04-13T07:01:31.094Z,1000.62
2018-04-13T07:02:31.101Z,1000.61
2018-04-13T07:03:31.012Z,1000.65
2018-04-13T07:04:30.979Z,1000.66
2018-04-13T07:05:30.961Z,1000.64
2018-04-13T07:06:30.885Z,1000.66
2018-04-13T07:07:30.857Z,1000.71
2018-04-13T07:08:30.809Z,1000.67
2018-04-13T07:09:30.782Z,1000.73
2018-04-13T07:10:30.784Z,1000.78
2018-04-13T07:11:30.698Z,1000.84
2018-04-13T07:12:30.660Z,1000.85
2018-04-13T07:13:30.639Z,1000.80
2018-04-13T07:14:30.583Z,1000.85
2018-04-13T07:15:30.551Z,1000.84
2018-04-13T07:16:30.536Z,1000.85
2018-04-13T07:17:30.483Z,1000.86
2018-04-13T07:18:30.431Z,1000.87
2018-04-13T07:19:30.400Z,1000.87
2018-04-13T07:20:30.363Z,1000.85
2018-04-13T07:21:30.311Z,1000.83
2018-04-13T07:22:30.307Z,1000.85
2018-04-13T07:23:30.241Z,1000.87
2018-04-13T07:24:30.205Z,1000.85
2018-04-13T07:25:30.167Z,1000.85
2018-04-13T07:26:30.131Z,1000.87
2018-04-13T07:27:30.123Z,1000.84
2018-04-13T07:28:30.065Z,1000.84
2018-04-13T07:29:30.014Z,1000.82
2018-04-13T07:30:30.011Z,1000.81
2018-04-13T07:31:29.938Z,1000.82
2018-04-13T07:32:29.907Z,1000.82
2018-04-13T07:33:29.907Z,1000.81
2018-04-13T07:34:29.870Z,1000.79
2018-04-13T07:35:29.788Z,1000.83
2018-04-13T07:36:29.754Z,1000.82
2018-04-13T07:37:29.721Z,1000.82
2018-04-13T07:38:29.673Z,1000.82
2018-04-13T07:39:29.664Z,1000.81
2018-04-13T07:40:29.795Z,1000.86
2018-04-13T07:41:29.560Z,1000.84
2018-04-13T07:42:29.528Z,1000.86
2018-04-13T07:43:29.491Z,1000.88
2018-04-13T07:44:29.479Z,1000.91
2018-04-13T07:45:29.418Z,1000.91
2018-04-13T07:46:29.392Z,1000.88
2018-04-13T07:47:29.341Z,1000.82
2018-04-13T07:48:29.301Z,1000.83
2018-04-13T07:49:29.259Z,1000.80
2018-04-13T07:50:29.259Z,1000.85
2018-04-13T07:51:29.178Z,1000.86
2018-04-13T07:52:29.166Z,1000.89
2018-04-13T07:53:29.130Z,1000.91
2018-04-13T07:54:29.077Z,1000.97
2018-04-13T07:55:29.033Z,1000.93
2018-04-13T07:56:29.054Z,1000.97
2018-04-13T07:57:28.958Z,1000.99
2018-04-13T07:58:28.916Z,1000.98
2018-04-13T07:59:28.897Z,1001.00
2018-04-13T08:00:28.841Z,1001.01
2018-04-13T08:01:28.809Z,1001.03
2018-04-13T08:02:28.809Z,1001.03
2018-04-13T08:03:28.740Z,1001.06
2018-04-13T08:04:28.693Z,1001.02
2018-04-13T08:05:28.673Z,1001.06
2018-04-13T08:06:28.627Z,1001.01
2018-04-13T08:07:28.620Z,1001.05
2018-04-13T08:08:28.546Z,1001.08
2018-04-13T08:09:28.982Z,1001.05
2018-04-13T08:10:28.467Z,1001.08
2018-04-13T08:11:28.443Z,1001.09
2018-04-13T08:12:28.402Z,1001.09
2018-04-13T08:13:28.413Z,1001.11
2018-04-13T08:14:28.326Z,1001.10
2018-04-13T08:15:28.298Z,1001.08
2018-04-13T08:16:28.253Z,1001.09
2018-04-13T08:17:28.216Z,1001.09
2018-04-13T08:18:28.173Z,1001.07
2018-04-13T08:19:28.168Z,1001.11
2018-04-13T08:20:28.127Z,1001.12
2018-04-13T08:21:28.063Z,1001.16
2018-04-13T08:22:28.033Z,1001.17
2018-04-13T08:23:27.995Z,1001.18
2018-04-13T08:24:28.003Z,1001.18
2018-04-13T08:25:27.920Z,1001.16
2018-04-13T08:26:27.926Z,1001.17
2018-04-13T08:27:27.870Z,1001.13
2018-04-13T08:28:27.819Z,1001.14
2018-04-13T08:29:27.772Z,1001.13
2018-04-13T08:30:27.773Z,1001.16
2018-04-13T08:31:27.695Z,1001.15
2018-04-13T08:32:27.682Z,1001.12
2018-04-13T08:33:27.615Z,1001.15
2018-04-13T08:34:27.590Z,1001.14
2018-04-13T08:35:27.548Z,1001.13
2018-04-13T08:36:27.573Z,1001.17
2018-04-13T08:37:27.475Z,1001.14
2018-04-13T08:38:27.467Z,1001.16
2018-04-13T08:39:27.409Z,1001.17
2018-04-13T08:40:27.355Z,1001.17
2018-04-13T08:41:27.354Z,1001.17
2018-04-13T08:42:27.327Z,1001.21
2018-04-13T08:43:27.269Z,1001.21
2018-04-13T08:44:27.224Z,1001.24
2018-04-13T08:45:27.200Z,1001.24
2018-04-13T08:46:27.172Z,1001.27
2018-04-13T08:47:27.146Z,1001.27
2018-04-13T08:48:27.069Z,1001.31
2018-04-13T08:49:27.037Z,1001.34
2018-04-13T08:50:26.995Z,1001.35
2018-04-13T08:51:26.980Z,1001.37
2018-04-13T08:52:26.958Z,1001.39
2018-04-13T08:53:26.932Z,1001.42
2018-04-13T08:54:26.846Z,1001.47
2018-04-13T08:55:26.810Z,1001.48
2018-04-13T08:56:26.772Z,1001.50
2018-04-13T08:57:26.742Z,1001.50
2018-04-13T08:58:26.696Z,1001.52
2018-04-13T08:59:26.701Z,1001.54
2018-04-13T09:00:26.619Z,1001.54
2018-04-13T09:01:26.594Z,1001.56
2018-04-13T09:02:26.551Z,1001.62
2018-04-13T09:03:26.522Z,1001.64
2018-04-13T09:04:26.512Z,1001.67
2018-04-13T09:05:26.439Z,1001.68
2018-04-13T09:06:26.452Z,1001.70
2018-04-13T09:07:26.373Z,1001.67
2018-04-13T09:08:26.336Z,1001.73
2018-04-13T09:09:26.298Z,1001.74
2018-04-13T09:10:26.283Z,1001.76
2018-04-13T09:11:26.232Z,1001.80
2018-04-13T09:12:26.180Z,1001.78
2018-04-13T09:13:26.151Z,1001.85
2018-04-13T09:14:26.117Z,1001.87
2018-04-13T09:15:26.086Z,1001.91
2018-04-13T09:16:26.079Z,1001.94
2018-04-13T09:17:26.011Z,1001.93
2018-04-13T09:18:25.976Z,1001.98
2018-04-13T09:19:25.937Z,1002.01
2018-04-13T09:20:25.903Z,1002.04
2018-04-13T09:21:25.905Z,1002.11
2018-04-13T09:22:25.833Z,1002.04
2018-04-13T09:23:25.798Z,1001.98
2018-04-13T09:24:25.760Z,1001.98
2018-04-13T09:25:25.733Z,1001.99
2018-04-13T09:26:25.699Z,1001.97
2018-04-13T09:27:25.686Z,1001.98
2018-04-13T09:28:25.619Z,1002.02
2018-04-13T09:29:25.590Z,1002.03
2018-04-13T09:30:25.569Z,1002.14
2018-04-13T09:31:25.526Z,1002.13
2018-04-13T09:32:25.481Z,1002.08
2018-04-13T09:33:25.483Z,1002.10
2018-04-13T09:34:25.413Z,1002.05
2018-04-13T09:35:25.383Z,1002.04
2018-04-13T09:36:25.358Z,1002.07
2018-04-13T09:37:25.316Z,1002.05
2018-04-13T09:38:25.313Z,1002.10
2018-04-13T09:39:25.292Z,1002.07
2018-04-13T09:40:25.237Z,1002.11
2018-04-13T09:41:25.183Z,1002.12
2018-04-13T09:42:25.149Z,1002.11
2018-04-13T09:43:25.115Z,1002.13
2018-04-13T09:44:25.143Z,1002.17
2018-04-13T09:45:25.049Z,1002.16
2018-04-13T09:46:25.017Z,1002.14
2018-04-13T09:47:24.991Z,1002.15
2018-04-13T09:48:24.955Z,1002.13
2018-04-13T09:49:24.924Z,1002.08
2018-04-13T09:50:24.913Z,1002.05
2018-04-13T09:51:24.847Z,1002.06
2018-04-13T09:52:24.821Z,1002.01
2018-04-13T09:53:24.785Z,1001.95
2018-04-13T09:54:24.747Z,1002.01
2018-04-13T09:55:24.724Z,1002.02
2018-04-13T09:56:24.707Z,1002.05
2018-04-13T09:57:24.639Z,1002.03
2018-04-13T09:58:24.609Z,1002.02
2018-04-13T09:59:24.580Z,1001.97
2018-04-13T10:00:24.547Z,1001.98
2018-04-13T10:01:24.540Z,1001.93
2018-04-13T10:02:24.478Z,1001.93
2018-04-13T10:03:24.447Z,1001.90
2018-04-13T10:04:24.415Z,1001.87
2018-04-13T10:05:24.379Z,1001.85
2018-04-13T10:06:24.372Z,1001.85
2018-04-13T10:07:24.309Z,1001.86
2018-04-13T10:08:24.277Z,1001.88
2018-04-13T10:09:24.232Z,1001.86
2018-04-13T10:10:24.204Z,1001.89
2018-04-13T10:11:24.198Z,1001.87
2018-04-13T10:12:24.178Z,1001.90
2018-04-13T10:13:24.095Z,1001.88
2018-04-13T10:14:24.057Z,1001.89
2018-04-13T10:15:24.029Z,1001.93
2018-04-13T10:16:23.986Z,1001.91
2018-04-13T10:17:23.990Z,1001.92
2018-04-13T10:18:23.922Z,1001.96
2018-04-13T10:19:23.887Z,1001.97
2018-04-13T10:20:23.857Z,1001.97
2018-04-13T10:21:23.822Z,1002.00
2018-04-13T10:22:23.786Z,1002.05
2018-04-13T10:23:23.774Z,1002.09
2018-04-13T10:24:23.701Z,1002.10
2018-04-13T10:25:23.671Z,1002.07
2018-04-13T10:26:23.641Z,1002.09
2018-04-13T10:27:23.609Z,1002.09
2018-04-13T10:28:23.616Z,1002.14
2018-04-13T10:29:23.532Z,1002.11
2018-04-13T10:30:23.494Z,1002.13
2018-04-13T10:31:23.460Z,1002.13
2018-04-13T10:32:23.432Z,1002.20
2018-04-13T10:33:23.382Z,1002.18
2018-04-13T10:34:23.382Z,1002.19
2018-04-13T10:35:23.323Z,1002.11
2018-04-13T10:36:23.281Z,1002.22
2018-04-13T10:37:23.244Z,1002.20
2018-04-13T10:38:23.217Z,1002.21
2018-04-13T10:39:23.186Z,1002.21
2018-04-13T10:40:23.169Z,1002.20
2018-04-13T10:41:23.110Z,1002.23
2018-04-13T10:42:23.078Z,1002.22
2018-04-13T10:43:23.043Z,1002.25
2018-04-13T10:44:22.990Z,1002.26
2018-04-13T10:45:22.999Z,1002.26
2018-04-13T10:46:22.926Z,1002.28
2018-04-13T10:47:22.897Z,1002.31
2018-04-13T10:48:22.854Z,1002.28
2018-04-13T10:49:22.855Z,1002.30
2018-04-13T10:50:22.785Z,1002.28
2018-04-13T10:51:22.785Z,1002.31
2018-04-13T10:52:22.714Z,1002.34
2018-04-13T10:53:22.670Z,1002.35
2018-04-13T10:54:22.642Z,1002.39
2018-04-13T10:55:22.602Z,1002.42
2018-04-13T10:56:22.571Z,1002.43
2018-04-13T10:57:22.567Z,1002.43
2018-04-13T10:58:22.491Z,1002.44
2018-04-13T10:59:22.463Z,1002.48
2018-04-13T11:00:22.424Z,1002.51
2018-04-13T11:01:22.389Z,1002.50
2018-04-13T11:02:22.395Z,1002.50
2018-04-13T11:03:22.320Z,1002.58
2018-04-13T11:04:22.281Z,1002.59
2018-04-13T11:05:22.261Z,1002.60
2018-04-13T11:06:22.223Z,1002.65
2018-04-13T11:07:22.172Z,1002.64
2018-04-13T11:08:22.163Z,1002.66
2018-04-13T11:09:22.116Z,1002.70
2018-04-13T11:10:22.116Z,1002.67
2018-04-13T11:11:22.032Z,1002.71
2018-04-13T11:12:21.992Z,1002.68
2018-04-13T11:13:21.992Z,1002.72
2018-04-13T11:14:21.922Z,1002.71
2018-04-13T11:15:21.888Z,1002.71
2018-04-13T11:16:21.849Z,1002.71
2018-04-13T11:17:21.845Z,1002.69
2018-04-13T11:18:21.791Z,1002.73
2018-04-13T11:19:21.775Z,1002.75
2018-04-13T11:20:21.714Z,1002.72
2018-04-13T11:21:21.671Z,1002.73
2018-04-13T11:22:21.646Z,1002.71
2018-04-13T11:23:21.600Z,1002.72
2018-04-13T11:24:21.574Z,1002.80
2018-04-13T11:25:21.569Z,1002.75
2018-04-13T11:26:21.499Z,1002.75
2018-04-13T11:27:21.459Z,1002.74
2018-04-13T11:28:21.430Z,1002.74
2018-04-13T11:29:21.391Z,1002.74
2018-04-13T11:30:21.386Z,1002.70
2018-04-13T11:31:21.319Z,1002.68
2018-04-13T11:32:21.277Z,1002.70
2018-04-13T11:33:21.241Z,1002.73
2018-04-13T11:34:21.253Z,1002.77
2018-04-13T11:35:21.174Z,1002.72
2018-04-13T11:36:21.167Z,1002.77
2018-04-13T11:37:21.103Z,1002.78
2018-04-13T11:38:21.065Z,1002.78
2018-04-13T11:39:21.030Z,1002.82
2018-04-13T11:40:20.998Z,1002.79
2018-04-13T11:41:20.958Z,1002.82
2018-04-13T11:42:20.955Z,1002.83
2018-04-13T11:43:20.890Z,1002.84
2018-04-13T11:44:20.851Z,1002.82
2018-04-13T11:45:20.830Z,1002.84
2018-04-13T11:46:20.778Z,1002.85
2018-04-13T11:47:20.770Z,1002.81
2018-04-13T11:48:20.708Z,1002.83
2018-04-13T11:49:20.667Z,1002.88
2018-04-13T11:50:20.643Z,1002.92
2018-04-13T11:51:20.603Z,1002.90
2018-04-13T11:52:20.573Z,1002.96
2018-04-13T11:53:20.564Z,1002.99
2018-04-13T11:54:20.503Z,1003.02
2018-04-13T11:55:20.467Z,1003.00
2018-04-13T11:56:20.425Z,1003.09
2018-04-13T11:57:20.385Z,1003.12
2018-04-13T11:58:20.354Z,1003.08
2018-04-13T11:59:20.361Z,1003.13
2018-04-13T12:00:20.287Z,1003.19
2018-04-13T12:01:20.252Z,1003.18
2018-04-13T12:02:20.219Z,1003.20
2018-04-13T12:03:20.182Z,1003.22
2018-04-13T12:04:20.172Z,1003.17
2018-04-13T12:05:20.128Z,1003.19
2018-04-13T12:06:20.080Z,1003.18
2018-04-13T12:07:20.054Z,1003.21
2018-04-13T12:08:20.003Z,1003.22
2018-04-13T12:09:19.976Z,1003.22
2018-04-13T12:10:19.960Z,1003.31
2018-04-13T12:11:19.926Z,1003.32
2018-04-13T12:12:19.867Z,1003.30
2018-04-13T12:13:19.838Z,1003.30
2018-04-13T12:14:19.802Z,1003.30
2018-04-13T12:15:19.783Z,1003.33
2018-04-13T12:16:19.763Z,1003.34